sensor_id;sensor_type;location;lat;lon;timestamp;temperature;humidity
3037;DHT22;1528;52.550;13.408;2023-05-07T00:01:40;11.20;34.70
3037;DHT22;1528;52.550;13.408;2023-05-07T00:04:25;11.20;34.40
3037;DHT22;1528;52.550;13.408;2023-05-07T00:07:12;11.10;35.10
3037;DHT22;1528;52.550;13.408;2023-05-07T00:09:59;11.20;34.60
3037;DHT22;1528;52.550;13.408;2023-05-07T00:12:44;11.40;34.30
3037;DHT22;1528;52.550;13.408;2023-05-07T00:15:30;11.30;34.50
3037;DHT22;1528;52.550;13.408;2023-05-07T00:18:15;11.20;34.20
3037;DHT22;1528;52.550;13.408;2023-05-07T00:21:03;11.20;34.20
3037;DHT22;1528;52.550;13.408;2023-05-07T00:23:48;11.10;34.70
3037;DHT22;1528;52.550;13.408;2023-05-07T00:26:35;11.20;34.60
3037;DHT22;1528;52.550;13.408;2023-05-07T00:29:21;11.20;34.10
3037;DHT22;1528;52.550;13.408;2023-05-07T00:32:07;11.10;34.60
3037;DHT22;1528;52.550;13.408;2023-05-07T00:34:53;11.20;34.60
3037;DHT22;1528;52.550;13.408;2023-05-07T00:37:38;11.30;34.30
3037;DHT22;1528;52.550;13.408;2023-05-07T00:40:24;11.30;34.40
3037;DHT22;1528;52.550;13.408;2023-05-07T00:43:11;11.10;34.30
3037;DHT22;1528;52.550;13.408;2023-05-07T00:45:57;11.20;34.30
3037;DHT22;1528;52.550;13.408;2023-05-07T00:48:42;11.10;34.20
3037;DHT22;1528;52.550;13.408;2023-05-07T00:51:29;11.00;34.60
3037;DHT22;1528;52.550;13.408;2023-05-07T00:54:15;11.10;34.20
3037;DHT22;1528;52.550;13.408;2023-05-07T00:57:02;11.00;34.50
3037;DHT22;1528;52.550;13.408;2023-05-07T00:59:51;11.20;34.30
3037;DHT22;1528;52.550;13.408;2023-05-07T01:02:36;11.30;33.70
3037;DHT22;1528;52.550;13.408;2023-05-07T01:05:23;11.10;34.00
3037;DHT22;1528;52.550;13.408;2023-05-07T01:08:09;11.30;34.50
3037;DHT22;1528;52.550;13.408;2023-05-07T01:10:55;11.40;33.40
3037;DHT22;1528;52.550;13.408;2023-05-07T01:13:41;11.30;33.80
3037;DHT22;1528;52.550;13.408;2023-05-07T01:16:29;11.40;33.70
3037;DHT22;1528;52.550;13.408;2023-05-07T01:19:17;11.40;33.50
3037;DHT22;1528;52.550;13.408;2023-05-07T01:22:08;11.40;33.50
3037;DHT22;1528;52.550;13.408;2023-05-07T01:24:55;11.30;33.90
3037;DHT22;1528;52.550;13.408;2023-05-07T01:27:41;11.30;33.80
3037;DHT22;1528;52.550;13.408;2023-05-07T01:30:27;11.20;33.90
3037;DHT22;1528;52.550;13.408;2023-05-07T01:33:15;11.20;34.10
3037;DHT22;1528;52.550;13.408;2023-05-07T01:36:05;11.10;34.10
3037;DHT22;1528;52.550;13.408;2023-05-07T01:38:52;11.30;33.70
3037;DHT22;1528;52.550;13.408;2023-05-07T01:41:40;11.30;33.40
3037;DHT22;1528;52.550;13.408;2023-05-07T01:44:26;11.10;33.50
3037;DHT22;1528;52.550;13.408;2023-05-07T01:47:12;11.20;33.50
3037;DHT22;1528;52.550;13.408;2023-05-07T01:49:59;11.20;33.10
3037;DHT22;1528;52.550;13.408;2023-05-07T01:52:44;11.20;33.20
3037;DHT22;1528;52.550;13.408;2023-05-07T01:55:30;11.20;33.30
3037;DHT22;1528;52.550;13.408;2023-05-07T01:58:17;11.20;33.40
3037;DHT22;1528;52.550;13.408;2023-05-07T02:01:02;11.30;33.00
3037;DHT22;1528;52.550;13.408;2023-05-07T02:03:48;11.40;32.80
3037;DHT22;1528;52.550;13.408;2023-05-07T02:06:34;11.40;32.60
3037;DHT22;1528;52.550;13.408;2023-05-07T02:09:20;11.40;32.50
3037;DHT22;1528;52.550;13.408;2023-05-07T02:12:06;11.30;33.00
3037;DHT22;1528;52.550;13.408;2023-05-07T02:14:53;11.20;32.70
3037;DHT22;1528;52.550;13.408;2023-05-07T02:17:58;11.20;32.70
3037;DHT22;1528;52.550;13.408;2023-05-07T02:20:44;11.30;33.00
3037;DHT22;1528;52.550;13.408;2023-05-07T02:23:29;11.20;32.70
3037;DHT22;1528;52.550;13.408;2023-05-07T02:26:15;11.20;32.70
3037;DHT22;1528;52.550;13.408;2023-05-07T02:29:01;11.30;32.50
3037;DHT22;1528;52.550;13.408;2023-05-07T02:31:48;11.30;32.30
3037;DHT22;1528;52.550;13.408;2023-05-07T02:34:35;11.40;32.60
3037;DHT22;1528;52.550;13.408;2023-05-07T02:37:21;11.20;32.70
3037;DHT22;1528;52.550;13.408;2023-05-07T02:40:07;11.10;33.20
3037;DHT22;1528;52.550;13.408;2023-05-07T02:42:53;11.20;33.20
3037;DHT22;1528;52.550;13.408;2023-05-07T02:45:39;11.20;33.10
3037;DHT22;1528;52.550;13.408;2023-05-07T02:48:26;11.10;32.80
3037;DHT22;1528;52.550;13.408;2023-05-07T02:51:11;11.00;33.40
3037;DHT22;1528;52.550;13.408;2023-05-07T02:53:57;11.10;33.30
3037;DHT22;1528;52.550;13.408;2023-05-07T02:56:43;11.10;33.00
3037;DHT22;1528;52.550;13.408;2023-05-07T02:59:28;11.20;32.80
3037;DHT22;1528;52.550;13.408;2023-05-07T03:02:14;11.20;32.40
3037;DHT22;1528;52.550;13.408;2023-05-07T03:05:01;11.20;32.40
3037;DHT22;1528;52.550;13.408;2023-05-07T03:07:47;11.10;32.40
3037;DHT22;1528;52.550;13.408;2023-05-07T03:10:33;11.20;32.00
3037;DHT22;1528;52.550;13.408;2023-05-07T03:13:19;11.00;32.50
3037;DHT22;1528;52.550;13.408;2023-05-07T03:16:05;11.10;32.40
3037;DHT22;1528;52.550;13.408;2023-05-07T03:18:51;11.20;32.40
3037;DHT22;1528;52.550;13.408;2023-05-07T03:21:38;11.20;31.80
3037;DHT22;1528;52.550;13.408;2023-05-07T03:24:24;11.10;32.20
3037;DHT22;1528;52.550;13.408;2023-05-07T03:27:09;11.20;32.10
3037;DHT22;1528;52.550;13.408;2023-05-07T03:29:55;11.30;31.60
3037;DHT22;1528;52.550;13.408;2023-05-07T03:32:40;11.20;32.00
3037;DHT22;1528;52.550;13.408;2023-05-07T03:35:26;11.20;32.30
3037;DHT22;1528;52.550;13.408;2023-05-07T03:38:13;11.40;31.60
3037;DHT22;1528;52.550;13.408;2023-05-07T03:40:58;11.20;31.40
3037;DHT22;1528;52.550;13.408;2023-05-07T03:43:44;11.20;31.50
3037;DHT22;1528;52.550;13.408;2023-05-07T03:46:30;11.20;31.80
3037;DHT22;1528;52.550;13.408;2023-05-07T03:49:16;11.20;31.50
3037;DHT22;1528;52.550;13.408;2023-05-07T03:52:02;11.30;31.60
3037;DHT22;1528;52.550;13.408;2023-05-07T03:54:49;11.20;32.10
3037;DHT22;1528;52.550;13.408;2023-05-07T03:57:35;11.20;31.40
3037;DHT22;1528;52.550;13.408;2023-05-07T04:00:21;11.30;31.50
3037;DHT22;1528;52.550;13.408;2023-05-07T04:03:07;11.20;31.70
3037;DHT22;1528;52.550;13.408;2023-05-07T04:05:53;11.40;31.60
3037;DHT22;1528;52.550;13.408;2023-05-07T04:08:38;11.40;31.00
3037;DHT22;1528;52.550;13.408;2023-05-07T04:11:26;11.40;31.40
3037;DHT22;1528;52.550;13.408;2023-05-07T04:14:11;11.40;31.50
3037;DHT22;1528;52.550;13.408;2023-05-07T04:16:57;11.30;31.30
3037;DHT22;1528;52.550;13.408;2023-05-07T04:19:43;11.30;31.30
3037;DHT22;1528;52.550;13.408;2023-05-07T04:22:29;11.20;31.20
3037;DHT22;1528;52.550;13.408;2023-05-07T04:25:16;11.20;32.10
3037;DHT22;1528;52.550;13.408;2023-05-07T04:28:03;11.30;31.10
3037;DHT22;1528;52.550;13.408;2023-05-07T04:30:48;11.40;31.00
3037;DHT22;1528;52.550;13.408;2023-05-07T04:33:34;11.50;30.90
3037;DHT22;1528;52.550;13.408;2023-05-07T04:36:19;11.70;30.40
3037;DHT22;1528;52.550;13.408;2023-05-07T04:39:05;11.60;30.10
3037;DHT22;1528;52.550;13.408;2023-05-07T04:41:51;11.50;30.70
3037;DHT22;1528;52.550;13.408;2023-05-07T04:44:38;11.50;30.50
3037;DHT22;1528;52.550;13.408;2023-05-07T04:47:24;11.40;30.60
3037;DHT22;1528;52.550;13.408;2023-05-07T04:50:10;11.30;30.60
3037;DHT22;1528;52.550;13.408;2023-05-07T04:52:55;11.50;30.10
3037;DHT22;1528;52.550;13.408;2023-05-07T04:55:41;11.60;30.00
3037;DHT22;1528;52.550;13.408;2023-05-07T04:58:27;11.60;30.10
3037;DHT22;1528;52.550;13.408;2023-05-07T05:01:16;11.60;29.80
3037;DHT22;1528;52.550;13.408;2023-05-07T05:04:02;11.70;29.40
3037;DHT22;1528;52.550;13.408;2023-05-07T05:06:47;11.70;29.30
3037;DHT22;1528;52.550;13.408;2023-05-07T05:09:33;11.80;29.40
3037;DHT22;1528;52.550;13.408;2023-05-07T05:12:19;11.80;29.20
3037;DHT22;1528;52.550;13.408;2023-05-07T05:15:06;11.90;29.20
3037;DHT22;1528;52.550;13.408;2023-05-07T05:17:53;12.00;28.60
3037;DHT22;1528;52.550;13.408;2023-05-07T05:20:38;12.10;29.00
3037;DHT22;1528;52.550;13.408;2023-05-07T05:23:24;11.90;28.40
3037;DHT22;1528;52.550;13.408;2023-05-07T05:26:10;11.90;28.00
3037;DHT22;1528;52.550;13.408;2023-05-07T05:28:55;12.00;28.20
3037;DHT22;1528;52.550;13.408;2023-05-07T05:31:41;12.00;27.90
3037;DHT22;1528;52.550;13.408;2023-05-07T05:34:28;12.10;27.90
3037;DHT22;1528;52.550;13.408;2023-05-07T05:37:14;12.10;28.00
3037;DHT22;1528;52.550;13.408;2023-05-07T05:39:59;12.10;28.20
3037;DHT22;1528;52.550;13.408;2023-05-07T05:42:45;12.10;27.70
3037;DHT22;1528;52.550;13.408;2023-05-07T05:45:31;12.30;27.40
3037;DHT22;1528;52.550;13.408;2023-05-07T05:48:16;12.40;27.20
3037;DHT22;1528;52.550;13.408;2023-05-07T05:51:03;12.50;26.90
3037;DHT22;1528;52.550;13.408;2023-05-07T05:53:49;12.50;27.20
3037;DHT22;1528;52.550;13.408;2023-05-07T05:56:36;12.70;27.00
3037;DHT22;1528;52.550;13.408;2023-05-07T05:59:21;12.70;26.40
3037;DHT22;1528;52.550;13.408;2023-05-07T06:02:07;12.50;26.60
3037;DHT22;1528;52.550;13.408;2023-05-07T06:04:52;12.40;26.80
3037;DHT22;1528;52.550;13.408;2023-05-07T06:07:39;12.40;27.60
3037;DHT22;1528;52.550;13.408;2023-05-07T06:10:25;12.20;27.70
3037;DHT22;1528;52.550;13.408;2023-05-07T06:13:11;12.40;27.70
3037;DHT22;1528;52.550;13.408;2023-05-07T06:15:56;12.60;26.90
3037;DHT22;1528;52.550;13.408;2023-05-07T06:18:42;12.80;26.60
3037;DHT22;1528;52.550;13.408;2023-05-07T06:21:29;12.70;27.00
3037;DHT22;1528;52.550;13.408;2023-05-07T06:24:16;12.80;26.20
3037;DHT22;1528;52.550;13.408;2023-05-07T06:27:01;12.80;26.70
3037;DHT22;1528;52.550;13.408;2023-05-07T06:29:47;12.90;26.50
3037;DHT22;1528;52.550;13.408;2023-05-07T06:32:33;13.10;26.00
3037;DHT22;1528;52.550;13.408;2023-05-07T06:35:19;13.00;26.50
3037;DHT22;1528;52.550;13.408;2023-05-07T06:38:04;13.40;25.40
3037;DHT22;1528;52.550;13.408;2023-05-07T06:40:51;13.40;25.40
3037;DHT22;1528;52.550;13.408;2023-05-07T06:43:39;13.30;25.70
3037;DHT22;1528;52.550;13.408;2023-05-07T06:46:25;13.40;25.90
3037;DHT22;1528;52.550;13.408;2023-05-07T06:49:10;13.50;24.90
3037;DHT22;1528;52.550;13.408;2023-05-07T06:51:56;13.40;25.20
3037;DHT22;1528;52.550;13.408;2023-05-07T06:54:41;13.20;25.00
3037;DHT22;1528;52.550;13.408;2023-05-07T06:57:28;13.50;25.00
3037;DHT22;1528;52.550;13.408;2023-05-07T07:00:14;13.60;24.30
3037;DHT22;1528;52.550;13.408;2023-05-07T07:03:00;13.60;24.50
3037;DHT22;1528;52.550;13.408;2023-05-07T07:05:45;13.50;24.50
3037;DHT22;1528;52.550;13.408;2023-05-07T07:08:34;13.50;25.00
3037;DHT22;1528;52.550;13.408;2023-05-07T07:11:34;13.50;24.80
3037;DHT22;1528;52.550;13.408;2023-05-07T07:14:21;13.70;24.50
3037;DHT22;1528;52.550;13.408;2023-05-07T07:17:06;13.60;24.20
3037;DHT22;1528;52.550;13.408;2023-05-07T07:19:52;13.80;24.10
3037;DHT22;1528;52.550;13.408;2023-05-07T07:22:38;14.00;23.40
3037;DHT22;1528;52.550;13.408;2023-05-07T07:25:23;14.00;23.30
3037;DHT22;1528;52.550;13.408;2023-05-07T07:28:09;14.20;23.10
3037;DHT22;1528;52.550;13.408;2023-05-07T07:30:56;14.30;22.50
3037;DHT22;1528;52.550;13.408;2023-05-07T07:33:42;14.20;23.10
3037;DHT22;1528;52.550;13.408;2023-05-07T07:36:27;14.10;23.60
3037;DHT22;1528;52.550;13.408;2023-05-07T07:39:14;14.20;23.00
3037;DHT22;1528;52.550;13.408;2023-05-07T07:42:00;14.40;23.50
3037;DHT22;1528;52.550;13.408;2023-05-07T07:44:45;14.20;23.20
3037;DHT22;1528;52.550;13.408;2023-05-07T07:47:32;14.30;23.10
3037;DHT22;1528;52.550;13.408;2023-05-07T07:50:18;14.40;22.20
3037;DHT22;1528;52.550;13.408;2023-05-07T07:53:03;14.30;22.50
3037;DHT22;1528;52.550;13.408;2023-05-07T07:55:49;14.20;22.60
3037;DHT22;1528;52.550;13.408;2023-05-07T07:58:34;14.40;22.30
3037;DHT22;1528;52.550;13.408;2023-05-07T08:01:22;14.40;21.90
3037;DHT22;1528;52.550;13.408;2023-05-07T08:04:09;14.40;21.80
3037;DHT22;1528;52.550;13.408;2023-05-07T08:06:54;14.40;21.80
3037;DHT22;1528;52.550;13.408;2023-05-07T08:09:40;14.50;22.50
3037;DHT22;1528;52.550;13.408;2023-05-07T08:12:26;14.80;21.00
3037;DHT22;1528;52.550;13.408;2023-05-07T08:15:12;14.80;21.00
3037;DHT22;1528;52.550;13.408;2023-05-07T08:17:58;14.80;21.10
3037;DHT22;1528;52.550;13.408;2023-05-07T08:20:45;14.80;21.20
3037;DHT22;1528;52.550;13.408;2023-05-07T08:23:31;14.90;20.00
3037;DHT22;1528;52.550;13.408;2023-05-07T08:26:18;14.90;20.10
3037;DHT22;1528;52.550;13.408;2023-05-07T08:29:04;14.90;20.10
3037;DHT22;1528;52.550;13.408;2023-05-07T08:31:50;15.20;20.10
3037;DHT22;1528;52.550;13.408;2023-05-07T08:34:35;15.30;19.60
3037;DHT22;1528;52.550;13.408;2023-05-07T08:37:23;15.30;19.80
3037;DHT22;1528;52.550;13.408;2023-05-07T08:40:08;15.60;19.30
3037;DHT22;1528;52.550;13.408;2023-05-07T08:42:55;15.50;19.00
3037;DHT22;1528;52.550;13.408;2023-05-07T08:45:41;15.60;19.30
3037;DHT22;1528;52.550;13.408;2023-05-07T08:48:29;16.00;18.80
3037;DHT22;1528;52.550;13.408;2023-05-07T08:51:17;15.90;18.50
3037;DHT22;1528;52.550;13.408;2023-05-07T08:54:04;16.10;18.60
3037;DHT22;1528;52.550;13.408;2023-05-07T08:56:51;16.10;18.20
3037;DHT22;1528;52.550;13.408;2023-05-07T08:59:37;16.20;18.50
3037;DHT22;1528;52.550;13.408;2023-05-07T09:02:22;16.30;18.40
3037;DHT22;1528;52.550;13.408;2023-05-07T09:05:08;16.40;17.80
3037;DHT22;1528;52.550;13.408;2023-05-07T09:07:54;16.40;18.20
3037;DHT22;1528;52.550;13.408;2023-05-07T09:10:41;16.80;16.90
3037;DHT22;1528;52.550;13.408;2023-05-07T09:13:27;16.70;16.90
3037;DHT22;1528;52.550;13.408;2023-05-07T09:16:14;16.70;17.20
3037;DHT22;1528;52.550;13.408;2023-05-07T09:19:00;16.60;16.90
3037;DHT22;1528;52.550;13.408;2023-05-07T09:21:45;16.90;16.90
3037;DHT22;1528;52.550;13.408;2023-05-07T09:24:31;17.00;16.50
3037;DHT22;1528;52.550;13.408;2023-05-07T09:27:21;17.30;16.80
3037;DHT22;1528;52.550;13.408;2023-05-07T09:30:07;17.30;16.20
3037;DHT22;1528;52.550;13.408;2023-05-07T09:32:53;17.30;15.80
3037;DHT22;1528;52.550;13.408;2023-05-07T09:35:39;17.20;15.80
3037;DHT22;1528;52.550;13.408;2023-05-07T09:38:25;17.40;16.40
3037;DHT22;1528;52.550;13.408;2023-05-07T09:41:12;17.50;15.70
3037;DHT22;1528;52.550;13.408;2023-05-07T09:44:00;17.50;15.50
3037;DHT22;1528;52.550;13.408;2023-05-07T09:46:47;17.60;16.10
3037;DHT22;1528;52.550;13.408;2023-05-07T09:49:39;17.50;15.60
3037;DHT22;1528;52.550;13.408;2023-05-07T09:52:26;17.50;15.70
3037;DHT22;1528;52.550;13.408;2023-05-07T09:55:17;17.70;15.40
3037;DHT22;1528;52.550;13.408;2023-05-07T09:58:04;17.80;15.40
3037;DHT22;1528;52.550;13.408;2023-05-07T10:00:53;18.00;15.00
3037;DHT22;1528;52.550;13.408;2023-05-07T10:03:40;18.00;15.10
3037;DHT22;1528;52.550;13.408;2023-05-07T10:06:26;18.10;14.20
3037;DHT22;1528;52.550;13.408;2023-05-07T10:09:14;18.10;14.50
3037;DHT22;1528;52.550;13.408;2023-05-07T10:12:00;18.40;15.10
3037;DHT22;1528;52.550;13.408;2023-05-07T10:14:47;18.60;13.60
3037;DHT22;1528;52.550;13.408;2023-05-07T10:17:36;18.90;13.80
3037;DHT22;1528;52.550;13.408;2023-05-07T10:20:22;19.20;13.20
3037;DHT22;1528;52.550;13.408;2023-05-07T10:23:13;19.40;13.10
3037;DHT22;1528;52.550;13.408;2023-05-07T10:26:02;19.40;12.10
3037;DHT22;1528;52.550;13.408;2023-05-07T10:28:52;19.20;11.60
3037;DHT22;1528;52.550;13.408;2023-05-07T10:31:54;19.50;11.80
3037;DHT22;1528;52.550;13.408;2023-05-07T10:34:47;19.50;11.70
3037;DHT22;1528;52.550;13.408;2023-05-07T10:37:34;19.20;12.10
3037;DHT22;1528;52.550;13.408;2023-05-07T10:40:20;19.40;11.80
3037;DHT22;1528;52.550;13.408;2023-05-07T10:43:06;19.70;11.60
3037;DHT22;1528;52.550;13.408;2023-05-07T10:46:19;20.00;10.90
3037;DHT22;1528;52.550;13.408;2023-05-07T10:49:10;19.80;10.50
3037;DHT22;1528;52.550;13.408;2023-05-07T10:52:15;20.00;10.60
3037;DHT22;1528;52.550;13.408;2023-05-07T10:55:19;19.80;11.30
3037;DHT22;1528;52.550;13.408;2023-05-07T10:58:22;19.90;11.20
3037;DHT22;1528;52.550;13.408;2023-05-07T11:01:09;20.10;10.60
3037;DHT22;1528;52.550;13.408;2023-05-07T11:04:14;20.20;9.70
3037;DHT22;1528;52.550;13.408;2023-05-07T11:07:29;20.30;10.10
3037;DHT22;1528;52.550;13.408;2023-05-07T11:10:15;20.60;9.60
3037;DHT22;1528;52.550;13.408;2023-05-07T11:13:01;20.50;9.20
3037;DHT22;1528;52.550;13.408;2023-05-07T11:15:47;20.20;8.90
3037;DHT22;1528;52.550;13.408;2023-05-07T11:18:47;20.30;9.00
3037;DHT22;1528;52.550;13.408;2023-05-07T11:21:35;20.60;9.40
3037;DHT22;1528;52.550;13.408;2023-05-07T11:24:22;22.00;7.80
3037;DHT22;1528;52.550;13.408;2023-05-07T11:27:08;23.40;6.30
3037;DHT22;1528;52.550;13.408;2023-05-07T11:29:53;24.40;4.60
3037;DHT22;1528;52.550;13.408;2023-05-07T11:32:39;25.10;3.60
3037;DHT22;1528;52.550;13.408;2023-05-07T11:35:25;25.80;2.20
3037;DHT22;1528;52.550;13.408;2023-05-07T11:38:11;25.90;1.00
3037;DHT22;1528;52.550;13.408;2023-05-07T11:40:59;26.10;1.00
3037;DHT22;1528;52.550;13.408;2023-05-07T11:43:57;26.40;1.20
3037;DHT22;1528;52.550;13.408;2023-05-07T11:46:44;27.10;1.00
3037;DHT22;1528;52.550;13.408;2023-05-07T11:49:30;26.80;1.00
3037;DHT22;1528;52.550;13.408;2023-05-07T11:52:23;26.40;1.00
3037;DHT22;1528;52.550;13.408;2023-05-07T11:55:09;25.60;1.00
3037;DHT22;1528;52.550;13.408;2023-05-07T11:57:56;25.80;1.00
3037;DHT22;1528;52.550;13.408;2023-05-07T12:00:48;25.40;1.00
3037;DHT22;1528;52.550;13.408;2023-05-07T12:03:35;26.90;1.00
3037;DHT22;1528;52.550;13.408;2023-05-07T12:06:21;29.20;1.00
3037;DHT22;1528;52.550;13.408;2023-05-07T12:09:10;28.90;1.00
3037;DHT22;1528;52.550;13.408;2023-05-07T12:11:56;31.10;1.00
3037;DHT22;1528;52.550;13.408;2023-05-07T12:14:44;31.40;1.00
3037;DHT22;1528;52.550;13.408;2023-05-07T12:17:30;33.00;1.00
3037;DHT22;1528;52.550;13.408;2023-05-07T12:20:17;35.70;1.00
3037;DHT22;1528;52.550;13.408;2023-05-07T12:23:03;37.90;1.00
3037;DHT22;1528;52.550;13.408;2023-05-07T12:25:48;40.40;1.00
3037;DHT22;1528;52.550;13.408;2023-05-07T12:28:38;41.40;1.00
3037;DHT22;1528;52.550;13.408;2023-05-07T12:31:27;40.50;1.00
3037;DHT22;1528;52.550;13.408;2023-05-07T12:34:12;40.80;1.00
3037;DHT22;1528;52.550;13.408;2023-05-07T12:37:04;42.40;1.00
3037;DHT22;1528;52.550;13.408;2023-05-07T12:40:03;43.70;1.00
3037;DHT22;1528;52.550;13.408;2023-05-07T12:42:53;44.60;1.00
3037;DHT22;1528;52.550;13.408;2023-05-07T12:45:41;42.50;1.00
3037;DHT22;1528;52.550;13.408;2023-05-07T12:48:28;39.00;1.00
3037;DHT22;1528;52.550;13.408;2023-05-07T12:51:14;38.50;1.00
3037;DHT22;1528;52.550;13.408;2023-05-07T12:54:00;40.30;1.00
3037;DHT22;1528;52.550;13.408;2023-05-07T12:56:46;41.20;1.00
3037;DHT22;1528;52.550;13.408;2023-05-07T12:59:36;40.40;1.00
3037;DHT22;1528;52.550;13.408;2023-05-07T13:02:32;37.30;1.00
3037;DHT22;1528;52.550;13.408;2023-05-07T13:05:22;35.60;1.00
3037;DHT22;1528;52.550;13.408;2023-05-07T13:08:07;33.40;1.00
3037;DHT22;1528;52.550;13.408;2023-05-07T13:10:54;32.40;1.00
3037;DHT22;1528;52.550;13.408;2023-05-07T13:13:41;31.80;1.00
3037;DHT22;1528;52.550;13.408;2023-05-07T13:16:27;31.50;1.00
3037;DHT22;1528;52.550;13.408;2023-05-07T13:19:13;29.20;1.00
3037;DHT22;1528;52.550;13.408;2023-05-07T13:22:00;29.00;1.00
3037;DHT22;1528;52.550;13.408;2023-05-07T13:24:48;28.60;1.00
3037;DHT22;1528;52.550;13.408;2023-05-07T13:27:34;28.00;1.00
3037;DHT22;1528;52.550;13.408;2023-05-07T13:30:20;28.30;1.00
3037;DHT22;1528;52.550;13.408;2023-05-07T13:33:06;29.10;1.00
3037;DHT22;1528;52.550;13.408;2023-05-07T13:35:52;30.80;1.00
3037;DHT22;1528;52.550;13.408;2023-05-07T13:38:39;33.20;1.00
3037;DHT22;1528;52.550;13.408;2023-05-07T13:41:25;35.40;1.00
3037;DHT22;1528;52.550;13.408;2023-05-07T13:44:10;36.50;1.00
3037;DHT22;1528;52.550;13.408;2023-05-07T13:46:56;33.70;1.00
3037;DHT22;1528;52.550;13.408;2023-05-07T13:49:42;34.40;1.00
3037;DHT22;1528;52.550;13.408;2023-05-07T13:52:29;34.00;1.00
3037;DHT22;1528;52.550;13.408;2023-05-07T13:55:17;35.40;1.00
3037;DHT22;1528;52.550;13.408;2023-05-07T13:58:03;37.50;1.00
3037;DHT22;1528;52.550;13.408;2023-05-07T14:00:52;38.10;1.00
3037;DHT22;1528;52.550;13.408;2023-05-07T14:03:37;35.80;1.00
3037;DHT22;1528;52.550;13.408;2023-05-07T14:06:24;37.10;1.00
3037;DHT22;1528;52.550;13.408;2023-05-07T14:09:10;35.60;1.00
3037;DHT22;1528;52.550;13.408;2023-05-07T14:11:59;34.30;1.00
3037;DHT22;1528;52.550;13.408;2023-05-07T14:14:45;35.00;1.00
3037;DHT22;1528;52.550;13.408;2023-05-07T14:17:31;38.80;1.00
3037;DHT22;1528;52.550;13.408;2023-05-07T14:20:17;41.90;1.00
3037;DHT22;1528;52.550;13.408;2023-05-07T14:23:02;45.00;1.00
3037;DHT22;1528;52.550;13.408;2023-05-07T14:25:48;46.90;1.00
3037;DHT22;1528;52.550;13.408;2023-05-07T14:28:41;45.90;1.00
3037;DHT22;1528;52.550;13.408;2023-05-07T14:31:30;46.00;1.00
3037;DHT22;1528;52.550;13.408;2023-05-07T14:34:17;48.30;1.00
3037;DHT22;1528;52.550;13.408;2023-05-07T14:37:05;49.20;1.00
3037;DHT22;1528;52.550;13.408;2023-05-07T14:39:51;46.00;1.00
3037;DHT22;1528;52.550;13.408;2023-05-07T14:42:36;45.00;1.00
3037;DHT22;1528;52.550;13.408;2023-05-07T14:45:23;47.10;1.00
3037;DHT22;1528;52.550;13.408;2023-05-07T14:48:09;47.50;1.00
3037;DHT22;1528;52.550;13.408;2023-05-07T14:50:59;45.70;1.00
3037;DHT22;1528;52.550;13.408;2023-05-07T14:53:45;41.20;1.00
3037;DHT22;1528;52.550;13.408;2023-05-07T14:56:30;38.70;1.00
3037;DHT22;1528;52.550;13.408;2023-05-07T14:59:16;36.20;1.00
3037;DHT22;1528;52.550;13.408;2023-05-07T15:02:06;34.00;1.00
3037;DHT22;1528;52.550;13.408;2023-05-07T15:04:52;32.20;1.00
3037;DHT22;1528;52.550;13.408;2023-05-07T15:07:38;31.10;1.00
3037;DHT22;1528;52.550;13.408;2023-05-07T15:10:23;30.60;1.00
3037;DHT22;1528;52.550;13.408;2023-05-07T15:13:10;31.50;1.00
3037;DHT22;1528;52.550;13.408;2023-05-07T15:15:56;30.40;1.00
3037;DHT22;1528;52.550;13.408;2023-05-07T15:18:43;29.20;1.00
3037;DHT22;1528;52.550;13.408;2023-05-07T15:21:29;28.00;1.00
3037;DHT22;1528;52.550;13.408;2023-05-07T15:24:18;26.90;1.00
3037;DHT22;1528;52.550;13.408;2023-05-07T15:27:04;26.30;1.00
3037;DHT22;1528;52.550;13.408;2023-05-07T15:29:49;25.80;1.00
3037;DHT22;1528;52.550;13.408;2023-05-07T15:32:35;25.50;1.00
3037;DHT22;1528;52.550;13.408;2023-05-07T15:35:22;25.90;1.00
3037;DHT22;1528;52.550;13.408;2023-05-07T15:38:09;26.30;1.00
3037;DHT22;1528;52.550;13.408;2023-05-07T15:41:00;26.30;1.00
3037;DHT22;1528;52.550;13.408;2023-05-07T15:43:48;26.40;1.00
3037;DHT22;1528;52.550;13.408;2023-05-07T15:46:37;26.30;1.00
3037;DHT22;1528;52.550;13.408;2023-05-07T15:49:23;25.60;1.00
3037;DHT22;1528;52.550;13.408;2023-05-07T15:52:09;24.70;1.00
3037;DHT22;1528;52.550;13.408;2023-05-07T15:54:57;24.10;1.00
3037;DHT22;1528;52.550;13.408;2023-05-07T15:57:47;24.10;1.00
3037;DHT22;1528;52.550;13.408;2023-05-07T16:00:33;24.20;1.00
3037;DHT22;1528;52.550;13.408;2023-05-07T16:03:19;24.30;1.00
3037;DHT22;1528;52.550;13.408;2023-05-07T16:06:06;24.10;1.00
3037;DHT22;1528;52.550;13.408;2023-05-07T16:08:53;24.20;1.00
3037;DHT22;1528;52.550;13.408;2023-05-07T16:11:38;24.10;1.00
3037;DHT22;1528;52.550;13.408;2023-05-07T16:14:24;24.40;1.00
3037;DHT22;1528;52.550;13.408;2023-05-07T16:17:09;23.90;1.00
3037;DHT22;1528;52.550;13.408;2023-05-07T16:19:55;23.80;1.00
3037;DHT22;1528;52.550;13.408;2023-05-07T16:22:41;23.20;1.00
3037;DHT22;1528;52.550;13.408;2023-05-07T16:25:31;22.80;1.00
3037;DHT22;1528;52.550;13.408;2023-05-07T16:28:17;22.70;1.00
3037;DHT22;1528;52.550;13.408;2023-05-07T16:31:02;22.50;1.00
3037;DHT22;1528;52.550;13.408;2023-05-07T16:33:48;22.60;1.00
3037;DHT22;1528;52.550;13.408;2023-05-07T16:36:34;22.50;1.00
3037;DHT22;1528;52.550;13.408;2023-05-07T16:39:19;22.10;1.00
3037;DHT22;1528;52.550;13.408;2023-05-07T16:42:07;21.70;1.00
3037;DHT22;1528;52.550;13.408;2023-05-07T16:44:53;21.10;1.00
3037;DHT22;1528;52.550;13.408;2023-05-07T16:47:39;21.00;1.00
3037;DHT22;1528;52.550;13.408;2023-05-07T16:50:25;20.80;1.00
3037;DHT22;1528;52.550;13.408;2023-05-07T16:53:11;20.70;1.00
3037;DHT22;1528;52.550;13.408;2023-05-07T16:55:56;20.60;1.40
3037;DHT22;1528;52.550;13.408;2023-05-07T16:58:43;20.30;1.40
3037;DHT22;1528;52.550;13.408;2023-05-07T17:01:29;19.90;2.70
3037;DHT22;1528;52.550;13.408;2023-05-07T17:04:15;19.90;3.00
3037;DHT22;1528;52.550;13.408;2023-05-07T17:07:01;19.70;3.60
3037;DHT22;1528;52.550;13.408;2023-05-07T17:09:47;19.40;3.80
3037;DHT22;1528;52.550;13.408;2023-05-07T17:12:32;19.20;4.20
3037;DHT22;1528;52.550;13.408;2023-05-07T17:15:20;19.50;4.40
3037;DHT22;1528;52.550;13.408;2023-05-07T17:18:06;19.30;4.20
3037;DHT22;1528;52.550;13.408;2023-05-07T17:20:51;19.30;3.70
3037;DHT22;1528;52.550;13.408;2023-05-07T17:23:37;19.00;4.20
3037;DHT22;1528;52.550;13.408;2023-05-07T17:26:23;18.90;4.20
3037;DHT22;1528;52.550;13.408;2023-05-07T17:29:09;18.70;4.90
3037;DHT22;1528;52.550;13.408;2023-05-07T17:31:56;18.60;5.10
3037;DHT22;1528;52.550;13.408;2023-05-07T17:34:41;18.50;5.00
3037;DHT22;1528;52.550;13.408;2023-05-07T17:37:27;18.50;4.60
3037;DHT22;1528;52.550;13.408;2023-05-07T17:40:12;18.20;4.40
3037;DHT22;1528;52.550;13.408;2023-05-07T17:42:58;18.10;5.10
3037;DHT22;1528;52.550;13.408;2023-05-07T17:45:43;18.10;5.40
3037;DHT22;1528;52.550;13.408;2023-05-07T17:48:31;17.90;5.70
3037;DHT22;1528;52.550;13.408;2023-05-07T17:51:17;17.90;6.00
3037;DHT22;1528;52.550;13.408;2023-05-07T17:54:03;17.80;6.00
3037;DHT22;1528;52.550;13.408;2023-05-07T17:56:48;17.70;6.40
3037;DHT22;1528;52.550;13.408;2023-05-07T17:59:34;17.80;6.60